sensor_id;sensor_type;location;lat;lon;timestamp;pressure;altitude;pressure_sealevel;temperature;humidity
23679;BME280;12016;51.668;6.874;2022-07-29T00:01:14;101337.94;;;23.53;45.61
23679;BME280;12016;51.668;6.874;2022-07-29T00:07:17;101329.91;;;23.52;45.58
23679;BME280;12016;51.668;6.874;2022-07-29T00:13:20;101331.84;;;23.42;45.58
23679;BME280;12016;51.668;6.874;2022-07-29T00:19:21;101335.13;;;23.41;45.73
23679;BME280;12016;51.668;6.874;2022-07-29T00:25:25;101323.47;;;23.39;46.08
23679;BME280;12016;51.668;6.874;2022-07-29T00:31:30;101325.63;;;23.35;46.10
23679;BME280;12016;51.668;6.874;2022-07-29T00:37:32;101322.59;;;23.29;46.27
23679;BME280;12016;51.668;6.874;2022-07-29T00:43:34;101304.84;;;23.29;46.65
23679;BME280;12016;51.668;6.874;2022-07-29T00:49:38;101307.84;;;23.22;46.96
23679;BME280;12016;51.668;6.874;2022-07-29T00:55:41;101299.50;;;23.18;47.26
23679;BME280;12016;51.668;6.874;2022-07-29T01:01:43;101273.16;;;23.09;47.64
23679;BME280;12016;51.668;6.874;2022-07-29T01:07:51;101276.59;;;23.04;47.77
23679;BME280;12016;51.668;6.874;2022-07-29T01:13:53;101277.91;;;22.99;48.02
23679;BME280;12016;51.668;6.874;2022-07-29T01:32:36;101244.25;;;22.79;48.53
23679;BME280;12016;51.668;6.874;2022-07-29T01:38:41;101250.47;;;22.74;49.03
23679;BME280;12016;51.668;6.874;2022-07-29T01:44:57;101256.66;;;22.69;49.37
23679;BME280;12016;51.668;6.874;2022-07-29T01:51:14;101262.56;;;22.62;49.52
23679;BME280;12016;51.668;6.874;2022-07-29T01:57:25;101249.81;;;22.58;49.85
23679;BME280;12016;51.668;6.874;2022-07-29T02:03:30;101246.34;;;22.50;50.35
23679;BME280;12016;51.668;6.874;2022-07-29T02:09:35;101245.00;;;22.42;50.65
23679;BME280;12016;51.668;6.874;2022-07-29T02:15:39;101237.53;;;22.36;51.36
23679;BME280;12016;51.668;6.874;2022-07-29T02:21:43;101239.69;;;22.32;51.02
23679;BME280;12016;51.668;6.874;2022-07-29T02:27:47;101242.25;;;22.26;51.18
23679;BME280;12016;51.668;6.874;2022-07-29T02:33:52;101253.63;;;22.23;51.11
23679;BME280;12016;51.668;6.874;2022-07-29T02:39:54;101246.06;;;22.20;51.04
23679;BME280;12016;51.668;6.874;2022-07-29T02:45:58;101234.53;;;22.14;51.73
23679;BME280;12016;51.668;6.874;2022-07-29T03:04:28;101296.28;;;21.96;52.57
23679;BME280;12016;51.668;6.874;2022-07-29T03:10:34;101290.72;;;21.64;53.65
23679;BME280;12016;51.668;6.874;2022-07-29T03:16:39;101305.44;;;21.39;55.04
23679;BME280;12016;51.668;6.874;2022-07-29T03:22:44;101291.63;;;21.45;55.11
23679;BME280;12016;51.668;6.874;2022-07-29T03:28:48;101313.63;;;21.34;55.30
23679;BME280;12016;51.668;6.874;2022-07-29T03:34:51;101295.22;;;21.29;55.56
23679;BME280;12016;51.668;6.874;2022-07-29T03:41:15;101322.59;;;21.29;56.39
23679;BME280;12016;51.668;6.874;2022-07-29T03:47:22;101302.69;;;21.20;56.02
23679;BME280;12016;51.668;6.874;2022-07-29T03:53:27;101299.00;;;21.07;56.49
23679;BME280;12016;51.668;6.874;2022-07-29T03:59:30;101296.38;;;21.16;56.07
23679;BME280;12016;51.668;6.874;2022-07-29T04:05:33;101303.81;;;21.06;56.84
23679;BME280;12016;51.668;6.874;2022-07-29T04:11:36;101299.16;;;21.00;57.17
23679;BME280;12016;51.668;6.874;2022-07-29T04:17:39;101299.50;;;21.02;56.98
23679;BME280;12016;51.668;6.874;2022-07-29T04:23:41;101314.47;;;20.99;57.42
23679;BME280;12016;51.668;6.874;2022-07-29T04:29:47;101321.66;;;21.00;60.20
23679;BME280;12016;51.668;6.874;2022-07-29T04:35:48;101373.28;;;20.74;64.81
23679;BME280;12016;51.668;6.874;2022-07-29T04:41:51;101379.59;;;20.62;67.80
23679;BME280;12016;51.668;6.874;2022-07-29T04:47:53;101369.16;;;20.62;70.82
23679;BME280;12016;51.668;6.874;2022-07-29T04:53:56;101362.66;;;20.65;74.63
23679;BME280;12016;51.668;6.874;2022-07-29T04:59:58;101342.66;;;20.60;74.79
23679;BME280;12016;51.668;6.874;2022-07-29T05:06:00;101323.25;;;20.46;75.41
23679;BME280;12016;51.668;6.874;2022-07-29T05:12:03;101352.78;;;20.38;74.80
23679;BME280;12016;51.668;6.874;2022-07-29T05:18:05;101354.28;;;19.53;78.75
23679;BME280;12016;51.668;6.874;2022-07-29T05:24:09;101336.53;;;20.02;78.24
23679;BME280;12016;51.668;6.874;2022-07-29T05:30:11;101339.91;;;20.17;77.80
23679;BME280;12016;51.668;6.874;2022-07-29T05:36:13;101358.75;;;19.74;80.42
23679;BME280;12016;51.668;6.874;2022-07-29T05:42:15;101341.66;;;20.07;78.52
23679;BME280;12016;51.668;6.874;2022-07-29T05:48:17;101336.97;;;20.24;78.92
23679;BME280;12016;51.668;6.874;2022-07-29T05:54:18;101343.28;;;20.28;78.92
23679;BME280;12016;51.668;6.874;2022-07-29T06:00:20;101336.03;;;20.31;79.56
23679;BME280;12016;51.668;6.874;2022-07-29T06:06:22;101345.16;;;20.35;80.19
23679;BME280;12016;51.668;6.874;2022-07-29T06:12:24;101333.22;;;20.31;79.18
23679;BME280;12016;51.668;6.874;2022-07-29T06:18:26;101334.09;;;20.28;78.85
23679;BME280;12016;51.668;6.874;2022-07-29T06:24:28;101337.03;;;20.20;78.14
23679;BME280;12016;51.668;6.874;2022-07-29T06:30:30;101333.84;;;20.18;78.12
23679;BME280;12016;51.668;6.874;2022-07-29T06:36:36;101317.84;;;20.15;77.96
23679;BME280;12016;51.668;6.874;2022-07-29T06:42:43;101323.69;;;20.25;81.00
23679;BME280;12016;51.668;6.874;2022-07-29T06:48:46;101306.28;;;20.30;80.13
23679;BME280;12016;51.668;6.874;2022-07-29T06:54:49;101311.84;;;20.33;79.96
23679;BME280;12016;51.668;6.874;2022-07-29T07:00:51;101308.97;;;20.37;79.67
23679;BME280;12016;51.668;6.874;2022-07-29T07:06:53;101295.72;;;20.37;79.06
23679;BME280;12016;51.668;6.874;2022-07-29T07:12:57;101309.19;;;20.46;78.97
23679;BME280;12016;51.668;6.874;2022-07-29T07:18:59;101329.41;;;20.41;78.92
23679;BME280;12016;51.668;6.874;2022-07-29T07:25:01;101376.50;;;19.90;81.71
23679;BME280;12016;51.668;6.874;2022-07-29T07:31:03;101411.13;;;19.04;87.46
23679;BME280;12016;51.668;6.874;2022-07-29T07:37:05;101416.72;;;19.08;87.50
23679;BME280;12016;51.668;6.874;2022-07-29T07:43:07;101441.75;;;18.95;88.18
23679;BME280;12016;51.668;6.874;2022-07-29T07:49:09;101437.28;;;19.31;85.55
23679;BME280;12016;51.668;6.874;2022-07-29T07:55:11;101444.81;;;19.38;85.76
23679;BME280;12016;51.668;6.874;2022-07-29T08:01:13;101454.19;;;19.24;87.92
23679;BME280;12016;51.668;6.874;2022-07-29T08:07:14;101457.56;;;19.42;89.18
23679;BME280;12016;51.668;6.874;2022-07-29T08:13:16;101466.88;;;19.66;89.29
23679;BME280;12016;51.668;6.874;2022-07-29T08:19:19;101442.00;;;19.87;86.57
23679;BME280;12016;51.668;6.874;2022-07-29T08:25:20;101450.50;;;20.07;87.67
23679;BME280;12016;51.668;6.874;2022-07-29T08:31:22;101447.66;;;20.10;86.12
23679;BME280;12016;51.668;6.874;2022-07-29T08:37:24;101461.63;;;20.17;85.76
23679;BME280;12016;51.668;6.874;2022-07-29T08:43:30;101464.94;;;20.09;87.05
23679;BME280;12016;51.668;6.874;2022-07-29T08:49:34;101451.78;;;20.29;86.73
23679;BME280;12016;51.668;6.874;2022-07-29T08:55:39;101458.78;;;20.41;86.34
23679;BME280;12016;51.668;6.874;2022-07-29T09:01:43;101465.38;;;20.07;86.17
23679;BME280;12016;51.668;6.874;2022-07-29T09:07:46;101458.50;;;20.08;87.44
23679;BME280;12016;51.668;6.874;2022-07-29T09:13:49;101433.38;;;20.25;88.27
23679;BME280;12016;51.668;6.874;2022-07-29T09:19:51;101436.72;;;20.39;87.99
23679;BME280;12016;51.668;6.874;2022-07-29T09:25:54;101424.88;;;20.48;88.04
23679;BME280;12016;51.668;6.874;2022-07-29T09:31:56;101424.63;;;20.62;88.02
23679;BME280;12016;51.668;6.874;2022-07-29T09:38:09;101419.56;;;20.73;88.01
23679;BME280;12016;51.668;6.874;2022-07-29T09:44:11;101415.94;;;20.92;87.76
23679;BME280;12016;51.668;6.874;2022-07-29T09:50:17;101415.22;;;21.27;87.19
23679;BME280;12016;51.668;6.874;2022-07-29T09:56:41;101412.78;;;21.61;85.38
23679;BME280;12016;51.668;6.874;2022-07-29T10:02:44;101414.03;;;22.08;83.99
23679;BME280;12016;51.668;6.874;2022-07-29T10:08:46;101418.72;;;22.43;83.43
23679;BME280;12016;51.668;6.874;2022-07-29T10:14:48;101391.34;;;22.98;80.02
23679;BME280;12016;51.668;6.874;2022-07-29T10:20:51;101388.13;;;23.24;78.46
23679;BME280;12016;51.668;6.874;2022-07-29T10:26:58;101376.56;;;23.19;77.40
23679;BME280;12016;51.668;6.874;2022-07-29T10:33:13;101371.16;;;23.24;77.50
23679;BME280;12016;51.668;6.874;2022-07-29T10:45:46;101365.72;;;23.17;76.04
23679;BME280;12016;51.668;6.874;2022-07-29T10:58:14;101363.34;;;23.16;76.45
23679;BME280;12016;51.668;6.874;2022-07-29T11:10:49;101365.81;;;23.14;75.40
23679;BME280;12016;51.668;6.874;2022-07-29T11:17:00;101379.94;;;23.01;74.02
23679;BME280;12016;51.668;6.874;2022-07-29T11:23:26;101387.31;;;22.99;75.60
23679;BME280;12016;51.668;6.874;2022-07-29T11:29:28;101392.16;;;22.98;75.01
23679;BME280;12016;51.668;6.874;2022-07-29T11:35:30;101405.66;;;23.57;74.01
23679;BME280;12016;51.668;6.874;2022-07-29T11:41:34;101395.94;;;24.51;71.67
23679;BME280;12016;51.668;6.874;2022-07-29T11:47:52;101374.75;;;25.78;69.72
23679;BME280;12016;51.668;6.874;2022-07-29T11:53:55;101345.91;;;30.76;59.77
23679;BME280;12016;51.668;6.874;2022-07-29T11:59:58;101340.59;;;31.93;52.58
23679;BME280;12016;51.668;6.874;2022-07-29T12:06:11;101336.34;;;36.15;41.14
23679;BME280;12016;51.668;6.874;2022-07-29T12:12:16;101331.78;;;39.38;37.27
23679;BME280;12016;51.668;6.874;2022-07-29T12:18:19;101337.22;;;41.67;33.67
23679;BME280;12016;51.668;6.874;2022-07-29T12:24:24;101365.47;;;37.04;36.03
23679;BME280;12016;51.668;6.874;2022-07-29T12:30:40;101365.25;;;32.33;41.91
23679;BME280;12016;51.668;6.874;2022-07-29T12:36:43;101357.84;;;30.69;45.36
23679;BME280;12016;51.668;6.874;2022-07-29T12:49:21;101376.94;;;28.55;50.11
23679;BME280;12016;51.668;6.874;2022-07-29T12:55:42;101367.44;;;28.11;51.83
23679;BME280;12016;51.668;6.874;2022-07-29T13:01:46;101373.53;;;27.71;53.38
23679;BME280;12016;51.668;6.874;2022-07-29T13:07:50;101373.38;;;27.00;56.55
23679;BME280;12016;51.668;6.874;2022-07-29T13:13:52;101380.69;;;26.56;57.53
23679;BME280;12016;51.668;6.874;2022-07-29T13:20:07;101379.25;;;26.06;60.15
23679;BME280;12016;51.668;6.874;2022-07-29T13:26:14;101380.94;;;25.86;59.90
23679;BME280;12016;51.668;6.874;2022-07-29T13:32:19;101397.53;;;25.57;61.42
23679;BME280;12016;51.668;6.874;2022-07-29T13:38:21;101390.34;;;25.74;61.30
23679;BME280;12016;51.668;6.874;2022-07-29T13:44:23;101383.53;;;25.53;61.53
23679;BME280;12016;51.668;6.874;2022-07-29T13:50:24;101384.09;;;25.39;60.87
23679;BME280;12016;51.668;6.874;2022-07-29T13:56:27;101385.50;;;25.34;61.45
23679;BME280;12016;51.668;6.874;2022-07-29T14:02:28;101388.41;;;25.53;61.36
23679;BME280;12016;51.668;6.874;2022-07-29T14:08:31;101378.75;;;25.41;61.68
23679;BME280;12016;51.668;6.874;2022-07-29T14:14:36;101372.94;;;25.45;61.40
23679;BME280;12016;51.668;6.874;2022-07-29T14:20:38;101379.97;;;25.89;61.27
23679;BME280;12016;51.668;6.874;2022-07-29T14:26:40;101361.22;;;27.98;56.94
23679;BME280;12016;51.668;6.874;2022-07-29T14:32:41;101353.13;;;28.58;55.57
23679;BME280;12016;51.668;6.874;2022-07-29T14:38:43;101357.28;;;28.71;54.03
23679;BME280;12016;51.668;6.874;2022-07-29T14:44:45;101349.75;;;28.45;53.55
23679;BME280;12016;51.668;6.874;2022-07-29T14:50:46;101341.56;;;28.76;52.32
23679;BME280;12016;51.668;6.874;2022-07-29T14:56:48;101335.66;;;29.08;50.32
23679;BME280;12016;51.668;6.874;2022-07-29T15:02:52;101335.63;;;29.23;48.43
23679;BME280;12016;51.668;6.874;2022-07-29T15:09:03;101334.84;;;29.22;48.07
23679;BME280;12016;51.668;6.874;2022-07-29T15:15:05;101334.09;;;29.42;48.15
23679;BME280;12016;51.668;6.874;2022-07-29T15:21:08;101330.69;;;29.38;47.80
23679;BME280;12016;51.668;6.874;2022-07-29T15:27:10;101328.03;;;29.35;47.66
23679;BME280;12016;51.668;6.874;2022-07-29T15:33:15;101329.53;;;29.30;47.07
23679;BME280;12016;51.668;6.874;2022-07-29T15:39:17;101329.53;;;29.30;46.85
23679;BME280;12016;51.668;6.874;2022-07-29T15:45:20;101332.13;;;29.13;45.56
23679;BME280;12016;51.668;6.874;2022-07-29T15:51:22;101329.34;;;28.90;45.79
23679;BME280;12016;51.668;6.874;2022-07-29T15:57:24;101338.59;;;28.85;46.11
23679;BME280;12016;51.668;6.874;2022-07-29T16:03:26;101322.66;;;28.93;46.74
23679;BME280;12016;51.668;6.874;2022-07-29T16:09:28;101320.09;;;28.95;46.59
23679;BME280;12016;51.668;6.874;2022-07-29T16:15:30;101305.66;;;28.98;46.04
23679;BME280;12016;51.668;6.874;2022-07-29T16:21:32;101308.13;;;28.91;45.84
23679;BME280;12016;51.668;6.874;2022-07-29T16:27:35;101313.13;;;28.81;44.88
23679;BME280;12016;51.668;6.874;2022-07-29T16:33:38;101315.28;;;28.72;44.93
23679;BME280;12016;51.668;6.874;2022-07-29T16:39:42;101317.38;;;28.57;45.73
23679;BME280;12016;51.668;6.874;2022-07-29T16:45:44;101320.13;;;28.66;45.55
23679;BME280;12016;51.668;6.874;2022-07-29T16:51:51;101330.53;;;28.54;46.97
23679;BME280;12016;51.668;6.874;2022-07-29T16:57:54;101317.47;;;28.62;46.20
23679;BME280;12016;51.668;6.874;2022-07-29T17:03:56;101312.94;;;28.56;46.12
23679;BME280;12016;51.668;6.874;2022-07-29T17:10:08;101312.06;;;28.64;46.54
23679;BME280;12016;51.668;6.874;2022-07-29T17:16:11;101318.56;;;28.65;46.02
23679;BME280;12016;51.668;6.874;2022-07-29T17:22:18;101315.78;;;28.56;46.00
23679;BME280;12016;51.668;6.874;2022-07-29T17:28:20;101312.91;;;28.41;45.88
23679;BME280;12016;51.668;6.874;2022-07-29T17:34:25;101317.13;;;28.46;46.52
23679;BME280;12016;51.668;6.874;2022-07-29T17:40:27;101331.47;;;28.37;46.14
23679;BME280;12016;51.668;6.874;2022-07-29T17:46:29;101328.69;;;28.28;46.13
23679;BME280;12016;51.668;6.874;2022-07-29T17:52:31;101329.66;;;28.25;46.37
23679;BME280;12016;51.668;6.874;2022-07-29T17:58:36;101325.56;;;28.26;46.99
23679;BME280;12016;51.668;6.874;2022-07-29T18:04:41;101322.78;;;28.17;47.38
23679;BME280;12016;51.668;6.874;2022-07-29T18:10:46;101336.13;;;28.11;47.67
23679;BME280;12016;51.668;6.874;2022-07-29T18:16:48;101344.31;;;27.94;48.72
23679;BME280;12016;51.668;6.874;2022-07-29T18:22:50;101355.06;;;27.66;48.00
23679;BME280;12016;51.668;6.874;2022-07-29T18:28:52;101362.44;;;27.49;48.96
23679;BME280;12016;51.668;6.874;2022-07-29T18:34:56;101346.72;;;27.30;49.11
23679;BME280;12016;51.668;6.874;2022-07-29T18:40:58;101350.56;;;27.09;49.77
23679;BME280;12016;51.668;6.874;2022-07-29T18:47:00;101347.19;;;26.87;52.37
23679;BME280;12016;51.668;6.874;2022-07-29T18:53:03;101356.84;;;26.72;53.52
23679;BME280;12016;51.668;6.874;2022-07-29T18:59:06;101355.75;;;26.51;54.39
23679;BME280;12016;51.668;6.874;2022-07-29T19:05:11;101362.53;;;26.26;55.43
23679;BME280;12016;51.668;6.874;2022-07-29T19:11:13;101365.38;;;26.08;56.36
23679;BME280;12016;51.668;6.874;2022-07-29T19:17:15;101366.13;;;25.91;57.66
23679;BME280;12016;51.668;6.874;2022-07-29T19:23:16;101363.72;;;25.71;59.30
23679;BME280;12016;51.668;6.874;2022-07-29T19:29:21;101374.22;;;25.53;60.80
23679;BME280;12016;51.668;6.874;2022-07-29T19:35:25;101373.00;;;25.32;62.35
23679;BME280;12016;51.668;6.874;2022-07-29T19:41:33;101388.00;;;25.11;62.28
23679;BME280;12016;51.668;6.874;2022-07-29T19:47:35;101394.03;;;24.91;63.33
23679;BME280;12016;51.668;6.874;2022-07-29T19:53:37;101406.50;;;24.72;63.44
23679;BME280;12016;51.668;6.874;2022-07-29T19:59:38;101412.28;;;24.47;64.14
23679;BME280;12016;51.668;6.874;2022-07-29T20:05:41;101423.44;;;24.29;64.74
23679;BME280;12016;51.668;6.874;2022-07-29T20:11:46;101417.50;;;24.15;65.50
23679;BME280;12016;51.668;6.874;2022-07-29T20:17:48;101426.53;;;23.97;66.76
23679;BME280;12016;51.668;6.874;2022-07-29T20:23:52;101430.75;;;23.67;67.94
23679;BME280;12016;51.668;6.874;2022-07-29T20:30:02;101445.81;;;23.64;68.30
23679;BME280;12016;51.668;6.874;2022-07-29T20:36:04;101443.00;;;23.52;68.33
23679;BME280;12016;51.668;6.874;2022-07-29T20:42:06;101449.09;;;23.38;69.41
23679;BME280;12016;51.668;6.874;2022-07-29T20:48:07;101451.09;;;23.25;69.80
23679;BME280;12016;51.668;6.874;2022-07-29T20:54:34;101451.72;;;23.04;70.39
23679;BME280;12016;51.668;6.874;2022-07-29T21:00:36;101454.41;;;22.95;70.49
23679;BME280;12016;51.668;6.874;2022-07-29T21:06:38;101461.16;;;22.84;70.95
23679;BME280;12016;51.668;6.874;2022-07-29T21:12:40;101467.94;;;22.42;73.65
23679;BME280;12016;51.668;6.874;2022-07-29T21:18:42;101471.47;;;22.30;73.66
23679;BME280;12016;51.668;6.874;2022-07-29T21:24:46;101478.91;;;22.24;73.60
23679;BME280;12016;51.668;6.874;2022-07-29T21:30:49;101479.53;;;22.32;72.92
23679;BME280;12016;51.668;6.874;2022-07-29T21:36:52;101486.47;;;22.27;73.29
23679;BME280;12016;51.668;6.874;2022-07-29T21:42:54;101485.97;;;22.16;73.31
23679;BME280;12016;51.668;6.874;2022-07-29T21:48:55;101494.94;;;21.95;74.24
23679;BME280;12016;51.668;6.874;2022-07-29T21:54:57;101499.34;;;21.80;75.29
23679;BME280;12016;51.668;6.874;2022-07-29T22:00:59;101505.22;;;21.70;74.86
23679;BME280;12016;51.668;6.874;2022-07-29T22:07:01;101496.72;;;21.53;76.57
23679;BME280;12016;51.668;6.874;2022-07-29T22:13:03;101500.31;;;21.54;76.49
23679;BME280;12016;51.668;6.874;2022-07-29T22:19:05;101512.09;;;21.49;76.62
23679;BME280;12016;51.668;6.874;2022-07-29T22:25:08;101506.13;;;21.47;76.64
23679;BME280;12016;51.668;6.874;2022-07-29T22:31:10;101500.28;;;21.38;76.83
23679;BME280;12016;51.668;6.874;2022-07-29T22:37:14;101505.97;;;21.34;77.31
23679;BME280;12016;51.668;6.874;2022-07-29T22:43:15;101496.59;;;21.21;77.60
23679;BME280;12016;51.668;6.874;2022-07-29T22:49:17;101498.28;;;21.19;78.55
23679;BME280;12016;51.668;6.874;2022-07-29T22:55:19;101493.78;;;21.02;79.23
23679;BME280;12016;51.668;6.874;2022-07-29T23:01:22;101500.56;;;20.85;79.19
23679;BME280;12016;51.668;6.874;2022-07-29T23:07:24;101492.31;;;20.74;78.66
23679;BME280;12016;51.668;6.874;2022-07-29T23:13:25;101484.38;;;20.69;78.33
23679;BME280;12016;51.668;6.874;2022-07-29T23:19:29;101467.84;;;20.71;78.35
23679;BME280;12016;51.668;6.874;2022-07-29T23:25:31;101473.53;;;20.68;78.20
23679;BME280;12016;51.668;6.874;2022-07-29T23:31:33;101461.28;;;20.58;78.19
23679;BME280;12016;51.668;6.874;2022-07-29T23:37:36;101460.13;;;20.56;77.61
23679;BME280;12016;51.668;6.874;2022-07-29T23:43:38;101466.25;;;20.51;77.60
23679;BME280;12016;51.668;6.874;2022-07-29T23:49:40;101466.88;;;20.39;78.43
23679;BME280;12016;51.668;6.874;2022-07-29T23:55:42;101468.59;;;20.33;78.58
